createdAt,value
2022-08-05T00:02:07.957Z,79.30
2022-08-05T00:06:03.135Z,79.40
2022-08-05T00:08:35.410Z,79.40
2022-08-05T00:11:49.115Z,79.30
2022-08-05T00:14:58.507Z,79.30
2022-08-05T00:17:59.463Z,79.30
2022-08-05T00:21:04.567Z,79.30
2022-08-05T00:24:10.741Z,79.40
2022-08-05T00:27:16.592Z,79.40
2022-08-05T00:30:19.476Z,79.50
2022-08-05T00:34:53.693Z,79.60
2022-08-05T00:37:12.726Z,79.60
2022-08-05T00:40:12.477Z,79.60
2022-08-05T00:43:15.615Z,79.60
2022-08-05T00:46:16.571Z,79.60
2022-08-05T00:49:18.844Z,79.60
2022-08-05T00:52:28.206Z,79.60
2022-08-05T00:55:42.446Z,79.70
2022-08-05T00:58:45.002Z,79.90
2022-08-05T01:01:48.411Z,80.20
2022-08-05T01:04:50.347Z,80.60
2022-08-05T01:08:41.290Z,81.10
2022-08-05T01:11:22.399Z,82.00
2022-08-05T01:14:28.743Z,82.60
2022-08-05T01:17:56.497Z,82.80
2022-08-05T01:21:26.531Z,83.20
2022-08-05T01:25:00.487Z,83.40
2022-08-05T01:28:22.480Z,83.50
2022-08-05T01:31:32.498Z,83.80
2022-08-05T01:35:00.501Z,83.90
2022-08-05T01:38:06.551Z,84.30
2022-08-05T01:41:10.565Z,84.40
2022-08-05T01:44:13.516Z,84.50
2022-08-05T01:47:17.504Z,84.80
2022-08-05T01:50:32.509Z,84.90
2022-08-05T01:53:55.187Z,85.00
2022-08-05T01:58:29.305Z,85.10
2022-08-05T02:00:30.253Z,85.00
2022-08-05T02:03:38.575Z,85.10
2022-08-05T02:06:40.588Z,85.10
2022-08-05T02:09:45.586Z,85.10
2022-08-05T02:13:04.824Z,85.20
2022-08-05T02:16:52.848Z,85.40
2022-08-05T02:20:04.517Z,85.50
2022-08-05T02:23:21.533Z,85.50
2022-08-05T02:26:26.607Z,85.50
2022-08-05T02:29:59.993Z,85.60
2022-08-05T02:32:55.688Z,85.70
2022-08-05T02:36:00.654Z,86.00
2022-08-05T02:39:03.617Z,86.10
2022-08-05T02:42:10.552Z,86.20
2022-08-05T02:45:52.485Z,86.20
2022-08-05T02:48:51.551Z,86.20
2022-08-05T02:52:03.138Z,86.20
2022-08-05T02:55:02.071Z,86.20
2022-08-05T02:58:10.221Z,86.20
2022-08-05T03:01:15.564Z,86.30
2022-08-05T03:04:18.603Z,86.50
2022-08-05T03:08:00.809Z,86.60
2022-08-05T03:11:53.611Z,86.80
2022-08-05T03:14:07.981Z,86.90
2022-08-05T03:17:09.160Z,87.00
2022-08-05T03:20:10.224Z,87.00
2022-08-05T03:23:12.617Z,87.10
2022-08-05T03:26:32.093Z,87.20
2022-08-05T03:29:45.500Z,87.20
2022-08-05T03:32:54.575Z,87.30
2022-08-05T03:35:57.626Z,87.40
2022-08-05T03:38:58.661Z,87.50
2022-08-05T03:41:59.637Z,87.50
2022-08-05T03:45:22.735Z,87.60
2022-08-05T03:48:16.639Z,87.50
2022-08-05T03:52:48.778Z,87.50
2022-08-05T03:56:05.885Z,87.50
2022-08-05T03:58:28.876Z,87.50
2022-08-05T04:01:32.608Z,87.60
2022-08-05T04:04:34.701Z,87.50
2022-08-05T04:07:58.129Z,87.50
2022-08-05T04:10:59.586Z,87.50
2022-08-05T04:14:00.878Z,87.50
2022-08-05T04:17:02.884Z,87.60
2022-08-05T04:20:03.653Z,87.60
2022-08-05T04:23:05.644Z,87.60
2022-08-05T04:26:06.759Z,87.60
2022-08-05T04:29:07.735Z,87.60
2022-08-05T04:32:08.669Z,87.50
2022-08-05T04:35:17.618Z,87.60
2022-08-05T04:38:20.729Z,87.70
2022-08-05T04:41:21.656Z,87.80
2022-08-05T04:44:37.650Z,87.90
2022-08-05T04:47:42.855Z,88.00
2022-08-05T04:51:03.794Z,88.10
2022-08-05T04:54:12.758Z,88.20
2022-08-05T04:57:13.644Z,88.30
2022-08-05T05:00:14.612Z,88.30
2022-08-05T05:03:18.772Z,88.40
2022-08-05T05:06:39.694Z,88.30
2022-08-05T05:09:45.773Z,88.30
2022-08-05T05:12:46.665Z,88.10
2022-08-05T05:15:56.819Z,88.20
2022-08-05T05:19:17.709Z,88.30
2022-08-05T05:22:24.668Z,88.30
2022-08-05T05:25:32.951Z,88.40
2022-08-05T05:28:42.808Z,88.50
2022-08-05T05:31:46.204Z,88.60
2022-08-05T05:34:47.619Z,88.50
2022-08-05T05:38:09.381Z,88.40
2022-08-05T05:41:40.622Z,88.40
2022-08-05T05:44:59.498Z,88.40
2022-08-05T05:48:08.207Z,88.50
2022-08-05T05:56:00.885Z,88.70
2022-08-05T05:59:28.718Z,88.90
2022-08-05T06:02:37.596Z,88.90
2022-08-05T06:05:38.802Z,88.70
2022-08-05T06:08:39.756Z,88.30
2022-08-05T06:11:40.699Z,87.90
2022-08-05T06:14:41.636Z,87.50
2022-08-05T06:17:53.183Z,87.00
2022-08-05T06:20:54.849Z,86.30
2022-08-05T06:23:55.839Z,85.60
2022-08-05T06:26:56.647Z,85.30
2022-08-05T06:30:04.477Z,85.10
2022-08-05T06:33:19.710Z,85.20
2022-08-05T06:36:56.788Z,85.30
2022-08-05T06:39:55.741Z,85.40
2022-08-05T06:42:56.755Z,85.50
2022-08-05T06:46:03.774Z,85.60
2022-08-05T06:49:07.862Z,85.80
2022-08-05T06:52:36.745Z,85.80
2022-08-05T06:55:36.179Z,85.30
2022-08-05T06:58:39.053Z,84.70
2022-08-05T07:01:40.907Z,84.30
2022-08-05T07:04:42.696Z,84.10
2022-08-05T07:07:58.716Z,84.10
2022-08-05T07:10:59.730Z,84.20
2022-08-05T07:14:29.821Z,84.20
2022-08-05T07:17:57.077Z,84.00
2022-08-05T07:27:58.346Z,83.20
2022-08-05T07:31:04.739Z,83.20
2022-08-05T07:34:08.312Z,83.20
2022-08-05T07:37:09.085Z,83.20
2022-08-05T07:40:32.677Z,83.20
2022-08-05T07:43:20.906Z,83.10
2022-08-05T07:46:24.432Z,82.60
2022-08-05T07:49:26.771Z,82.00
2022-08-05T07:52:27.698Z,82.00
2022-08-05T07:56:05.776Z,81.90
2022-08-05T07:58:57.338Z,81.70
2022-08-05T08:01:59.823Z,81.30
2022-08-05T08:08:21.768Z,80.60
2022-08-05T08:11:27.649Z,80.50
2022-08-05T08:14:46.624Z,80.30
2022-08-05T08:17:52.495Z,80.20
2022-08-05T08:21:02.098Z,79.80
2022-08-05T08:24:05.693Z,79.20
2022-08-05T08:27:08.792Z,79.00
2022-08-05T08:30:29.580Z,78.80
2022-08-05T08:33:38.103Z,78.70
2022-08-05T08:36:48.936Z,78.00
2022-08-05T08:39:53.797Z,77.10
2022-08-05T08:42:56.591Z,76.40
2022-08-05T08:45:58.708Z,75.20
2022-08-05T08:50:05.703Z,73.90
2022-08-05T08:52:26.928Z,72.70
2022-08-05T08:56:01.924Z,71.20
2022-08-05T08:58:48.938Z,71.40
2022-08-05T09:01:57.308Z,70.80
2022-08-05T09:05:17.720Z,69.70
2022-08-05T09:08:18.760Z,69.70
2022-08-05T09:11:51.345Z,70.40
2022-08-05T09:14:57.233Z,70.00
2022-08-05T09:18:04.805Z,69.40
2022-08-05T09:21:05.753Z,68.90
2022-08-05T09:24:19.784Z,67.80
2022-08-05T09:28:05.497Z,66.80
2022-08-05T09:30:44.825Z,66.40
2022-08-05T09:34:05.760Z,65.50
2022-08-05T09:37:06.909Z,65.40
2022-08-05T09:40:15.947Z,65.50
2022-08-05T09:43:17.769Z,64.80
2022-08-05T09:46:35.794Z,63.30
2022-08-05T09:49:54.846Z,62.90
2022-08-05T09:52:58.946Z,62.70
2022-08-05T09:56:03.770Z,62.10
2022-08-05T09:59:23.978Z,61.60
2022-08-05T10:02:27.855Z,61.00
2022-08-05T10:05:33.849Z,61.30
2022-08-05T10:08:38.781Z,60.40
2022-08-05T10:11:45.859Z,59.90
2022-08-05T10:14:48.777Z,61.00
2022-08-05T10:17:56.783Z,61.90
2022-08-05T10:21:06.381Z,62.30
2022-08-05T10:24:12.861Z,61.40
2022-08-05T10:27:13.888Z,60.10
2022-08-05T10:32:47.462Z,60.10
2022-08-05T10:33:43.954Z,60.00
2022-08-05T10:36:44.775Z,58.60
2022-08-05T10:40:03.507Z,58.00
2022-08-05T10:43:20.788Z,59.10
2022-08-05T10:46:25.891Z,62.00
2022-08-05T10:49:33.501Z,63.30
2022-08-05T10:53:00.860Z,63.50
2022-08-05T10:56:25.991Z,64.10
2022-08-05T11:00:04.249Z,64.30
2022-08-05T11:03:24.550Z,64.00
2022-08-05T11:06:30.797Z,61.20
2022-08-05T11:09:45.735Z,59.20
2022-08-05T11:12:55.213Z,58.70
2022-08-05T11:16:01.252Z,57.30
2022-08-05T11:20:11.338Z,57.20
2022-08-05T11:23:05.876Z,56.50
2022-08-05T11:26:32.153Z,56.90
2022-08-05T11:30:12.878Z,56.90
2022-08-05T11:33:48.026Z,55.20
2022-08-05T11:36:57.894Z,55.10
2022-08-05T11:40:05.367Z,53.90
2022-08-05T11:43:05.912Z,53.50
2022-08-05T11:46:27.263Z,52.80
2022-08-05T11:49:33.952Z,54.00
2022-08-05T11:52:43.974Z,54.80
2022-08-05T11:55:46.907Z,55.00
2022-08-05T11:58:55.992Z,55.40
2022-08-05T12:02:30.951Z,56.80
2022-08-05T12:05:43.610Z,56.90
2022-08-05T12:08:49.889Z,54.10
2022-08-05T12:11:52.021Z,54.00
2022-08-05T12:14:54.956Z,54.00
2022-08-05T12:18:04.033Z,53.40
2022-08-05T12:21:21.871Z,50.90
2022-08-05T12:24:27.945Z,49.90
2022-08-05T12:27:36.033Z,48.70
2022-08-05T12:30:53.947Z,49.10
2022-08-05T12:34:00.022Z,50.80
2022-08-05T12:37:03.228Z,53.60
2022-08-05T12:40:10.914Z,54.80
2022-08-05T12:43:11.956Z,56.40
2022-08-05T12:46:54.033Z,57.30
2022-08-05T12:50:04.097Z,57.20
2022-08-05T12:53:12.039Z,56.00
2022-08-05T12:56:35.188Z,56.00
2022-08-05T13:00:08.827Z,55.10
2022-08-05T13:03:03.073Z,54.80
2022-08-05T13:06:07.883Z,54.40
2022-08-05T13:09:28.035Z,53.10
2022-08-05T13:12:29.953Z,53.20
2022-08-05T13:15:36.012Z,53.40
2022-08-05T13:18:52.898Z,54.50
2022-08-05T13:21:56.851Z,55.50
2022-08-05T13:25:00.681Z,55.60
2022-08-05T13:28:07.995Z,54.00
2022-08-05T13:31:14.103Z,52.50
2022-08-05T13:34:22.023Z,51.40
2022-08-05T13:37:34.284Z,50.60
2022-08-05T13:40:49.920Z,49.80
2022-08-05T13:43:54.512Z,50.20
2022-08-05T13:47:02.467Z,51.40
2022-08-05T13:49:59.931Z,51.80
2022-08-05T13:53:01.007Z,51.80
2022-08-05T13:56:02.373Z,52.00
2022-08-05T13:59:05.952Z,51.90
2022-08-05T14:02:26.444Z,51.90
2022-08-05T14:06:04.798Z,51.80
2022-08-05T14:08:50.995Z,51.30
2022-08-05T14:12:04.105Z,51.10
2022-08-05T14:16:07.798Z,50.80
2022-08-05T14:18:35.006Z,51.30
2022-08-05T14:22:10.388Z,51.60
2022-08-05T14:25:00.061Z,51.00
2022-08-05T14:28:02.105Z,51.60
2022-08-05T14:31:02.951Z,52.60
2022-08-05T14:34:03.951Z,53.00
2022-08-05T14:37:04.958Z,51.70
2022-08-05T14:40:06.070Z,51.60
2022-08-05T14:43:07.096Z,51.30
2022-08-05T14:46:11.976Z,52.20
2022-08-05T14:49:15.036Z,52.10
2022-08-05T14:52:42.899Z,51.80
2022-08-05T14:55:39.671Z,51.90
2022-08-05T14:58:47.507Z,52.90
2022-08-05T15:01:54.094Z,53.50
2022-08-05T15:04:55.060Z,54.50
2022-08-05T15:08:06.139Z,54.30
2022-08-05T15:11:15.782Z,53.20
2022-08-05T15:14:33.380Z,52.00
2022-08-05T15:17:46.839Z,51.70
2022-08-05T15:20:49.030Z,52.10
2022-08-05T15:23:50.000Z,51.20
2022-08-05T15:26:52.045Z,51.30
2022-08-05T15:29:53.041Z,50.80
2022-08-05T15:32:57.049Z,49.90
2022-08-05T15:35:59.071Z,46.70
2022-08-05T15:41:03.676Z,46.20
2022-08-05T15:42:54.306Z,45.00
2022-08-05T15:45:46.145Z,44.80
2022-08-05T15:48:52.700Z,42.90
2022-08-05T15:52:09.804Z,43.20
2022-08-05T15:55:24.940Z,43.40
2022-08-05T15:58:43.507Z,43.90
2022-08-05T16:01:52.832Z,45.10
2022-08-05T16:04:54.047Z,46.10
2022-08-05T16:07:55.020Z,46.10
2022-08-05T16:10:58.090Z,46.90
2022-08-05T16:13:59.021Z,47.30
2022-08-05T16:17:01.080Z,48.00
2022-08-05T16:20:11.750Z,48.50
2022-08-05T16:23:13.032Z,49.50
2022-08-05T16:26:18.117Z,50.30
2022-08-05T16:29:20.142Z,50.70
2022-08-05T16:32:28.544Z,51.40
2022-08-05T16:35:33.752Z,51.70
2022-08-05T16:38:43.093Z,51.10
2022-08-05T16:42:13.872Z,50.00
2022-08-05T16:46:05.100Z,49.60
2022-08-05T16:48:38.290Z,49.50
2022-08-05T16:51:42.831Z,49.30
2022-08-05T16:54:52.115Z,49.40
2022-08-05T16:58:01.427Z,48.90
2022-08-05T17:01:04.090Z,48.40
2022-08-05T17:04:10.077Z,48.40
2022-08-05T17:07:12.031Z,48.60
2022-08-05T17:10:13.107Z,47.40
2022-08-05T17:13:17.228Z,47.80
2022-08-05T17:16:32.636Z,48.80
2022-08-05T17:19:34.128Z,48.80
2022-08-05T17:22:35.279Z,47.30
2022-08-05T17:25:40.170Z,47.60
2022-08-05T17:28:43.086Z,48.10
2022-08-05T17:31:57.229Z,48.10
2022-08-05T17:34:53.074Z,47.80
2022-08-05T17:37:54.195Z,47.80
2022-08-05T17:41:01.183Z,48.00
2022-08-05T17:44:03.112Z,47.90
2022-08-05T17:47:04.159Z,47.50
2022-08-05T17:50:10.621Z,47.10
2022-08-05T17:53:13.227Z,47.10
2022-08-05T17:56:16.187Z,46.90
2022-08-05T17:59:22.623Z,46.40
2022-08-05T18:02:23.476Z,46.10
2022-08-05T18:05:28.122Z,46.10
2022-08-05T18:08:36.150Z,46.10
2022-08-05T18:11:37.153Z,45.90
2022-08-05T18:14:38.174Z,45.90
2022-08-05T18:17:59.269Z,45.60
2022-08-05T18:21:00.181Z,45.30
2022-08-05T18:24:02.122Z,45.00
2022-08-05T18:27:04.184Z,44.80
2022-08-05T18:30:13.161Z,45.00
2022-08-05T18:33:15.262Z,45.70
2022-08-05T18:36:19.086Z,47.30
2022-08-05T18:39:42.280Z,49.00
2022-08-05T18:42:41.207Z,50.70
2022-08-05T18:45:42.677Z,51.30
2022-08-05T18:48:44.113Z,51.20
2022-08-05T18:52:08.953Z,51.30
2022-08-05T18:55:25.157Z,51.80
2022-08-05T18:58:28.752Z,52.40
2022-08-05T19:01:47.306Z,53.10
2022-08-05T19:05:01.176Z,53.70
2022-08-05T19:08:07.206Z,54.40
2022-08-05T19:11:14.119Z,55.10
2022-08-05T19:14:53.251Z,55.70
2022-08-05T19:17:59.511Z,56.20
2022-08-05T19:21:01.210Z,56.80
2022-08-05T19:24:05.571Z,57.10
2022-08-05T19:27:09.278Z,57.50
2022-08-05T19:30:13.373Z,57.90
2022-08-05T19:33:16.769Z,58.60
2022-08-05T19:36:19.155Z,59.20
2022-08-05T19:39:21.742Z,60.20
2022-08-05T19:42:35.362Z,61.10
2022-08-05T19:45:37.341Z,61.80
2022-08-05T19:48:38.215Z,62.50
2022-08-05T19:52:04.363Z,63.00
2022-08-05T19:55:00.437Z,63.50
2022-08-05T19:58:29.272Z,63.80
2022-08-05T20:01:28.518Z,64.30
2022-08-05T20:04:30.166Z,64.60
2022-08-05T20:07:38.915Z,65.00
2022-08-05T20:10:45.186Z,65.30
2022-08-05T20:13:58.868Z,65.80
2022-08-05T20:17:13.236Z,66.30
2022-08-05T20:20:18.218Z,66.50
2022-08-05T20:23:19.181Z,66.80
2022-08-05T20:26:20.198Z,67.20
2022-08-05T20:29:27.421Z,67.40
2022-08-05T20:32:28.451Z,67.60
2022-08-05T20:35:29.180Z,67.80
2022-08-05T20:38:35.428Z,68.00
2022-08-05T20:41:43.858Z,68.20
2022-08-05T20:44:45.235Z,68.40
2022-08-05T20:47:46.401Z,68.70
2022-08-05T20:50:47.240Z,69.00
2022-08-05T20:53:56.176Z,69.30
2022-08-05T20:56:58.386Z,69.30
2022-08-05T21:00:21.093Z,69.40
2022-08-05T21:03:20.537Z,69.60
2022-08-05T21:06:27.728Z,69.80
2022-08-05T21:09:29.222Z,70.10
2022-08-05T21:12:30.201Z,70.20
2022-08-05T21:15:33.642Z,70.40
2022-08-05T21:18:35.871Z,70.90
2022-08-05T21:21:39.019Z,71.10
2022-08-05T21:24:45.217Z,71.50
2022-08-05T21:27:52.683Z,71.70
2022-08-05T21:30:54.211Z,71.70
2022-08-05T21:33:55.370Z,72.10
2022-08-05T21:36:56.309Z,72.20
2022-08-05T21:39:58.429Z,72.30
2022-08-05T21:42:59.373Z,72.50
2022-08-05T21:46:00.642Z,72.70
2022-08-05T21:49:07.392Z,72.70
2022-08-05T21:52:21.434Z,72.90
2022-08-05T21:55:43.107Z,73.20
2022-08-05T21:58:57.541Z,73.40
2022-08-05T22:01:56.265Z,73.40
2022-08-05T22:04:57.278Z,73.70
2022-08-05T22:08:02.244Z,74.00
2022-08-05T22:11:06.745Z,74.20
2022-08-05T22:14:35.093Z,74.20
2022-08-05T22:17:28.269Z,74.30
2022-08-05T22:20:29.410Z,74.30
2022-08-05T22:24:01.946Z,74.40
2022-08-05T22:27:22.323Z,74.70
2022-08-05T22:30:32.259Z,74.80
2022-08-05T22:33:58.003Z,75.10
2022-08-05T22:36:59.291Z,75.30
2022-08-05T22:40:07.338Z,75.50
2022-08-05T22:46:23.180Z,76.10
2022-08-05T22:52:43.368Z,76.40
2022-08-05T22:55:57.213Z,76.60
2022-08-05T22:59:47.356Z,76.70
2022-08-05T23:02:47.394Z,77.10
2022-08-05T23:05:48.351Z,77.20
2022-08-05T23:08:52.115Z,77.50
2022-08-05T23:26:12.333Z,78.80
2022-08-05T23:32:45.471Z,79.20
2022-08-05T23:42:29.841Z,80.30
2022-08-05T23:56:41.073Z,81.00
